OEFIC LOWZ-LSZR
Flight info
| Callsign | OEFIC |
|---|---|
| Flight time | N/A |
| Altitude | 0 |
| Route | MITTERSILL RTT M1 W1 ARLBERG S |
| Aircraft | B60T/L-SDFGRWY/S |
Departure
| Time | 2026-04-22 17:55 |
|---|---|
| Airport | Zell am See Airfield (LOWZ) |
Arrival
| Time | N/A |
|---|---|
| Airport | Sankt Gallen Altenrhein Airport (LSZR) |
| Time | Latitude | Longitude | Altitude | Speed | Heading |
|---|---|---|---|---|---|
| 2026-04-22 17:45 | 47.29202 | 12.78737 | 2526 ft | 0 kts | 346° |
| 2026-04-22 17:52 | 47.29203 | 12.78759 | 2526 ft | 6 kts | 152° |
| 2026-04-22 17:53 | 47.29180 | 12.78729 | 2527 ft | 8 kts | 242° |
| 2026-04-22 17:53 | 47.29165 | 12.78645 | 2527 ft | 6 kts | 256° |
| 2026-04-22 17:53 | 47.29137 | 12.78585 | 2527 ft | 5 kts | 171° |
| 2026-04-22 17:53 | 47.29125 | 12.78584 | 2527 ft | 4 kts | 185° |
| 2026-04-22 17:54 | 47.29111 | 12.78582 | 2527 ft | 3 kts | 186° |
| 2026-04-22 17:54 | 47.29081 | 12.78589 | 2529 ft | 5 kts | 139° |
| 2026-04-22 17:54 | 47.29074 | 12.78616 | 2529 ft | 0 kts | 80° |
| 2026-04-22 17:54 | 47.29088 | 12.78693 | 2530 ft | 39 kts | 74° |
| 2026-04-22 17:55 | 47.29206 | 12.79494 | 2636 ft | 108 kts | 80° |
| 2026-04-22 17:55 | 47.29347 | 12.80687 | 3234 ft | 121 kts | 69° |
| 2026-04-22 17:55 | 47.29961 | 12.81493 | 3755 ft | 129 kts | 16° |
| 2026-04-22 17:55 | 47.30891 | 12.81650 | 4136 ft | 141 kts | 9° |
| 2026-04-22 17:56 | 47.31850 | 12.81884 | 4693 ft | 138 kts | 359° |
| 2026-04-22 17:56 | 47.32631 | 12.81176 | 5262 ft | 146 kts | 296° |
| 2026-04-22 17:56 | 47.32457 | 12.79698 | 5670 ft | 157 kts | 234° |
| 2026-04-22 17:56 | 47.31754 | 12.78395 | 6000 ft | 166 kts | 236° |
| 2026-04-22 17:57 | 47.31120 | 12.76965 | 6388 ft | 170 kts | 237° |
| 2026-04-22 17:57 | 47.30425 | 12.75513 | 6660 ft | 176 kts | 235° |
| 2026-04-22 17:57 | 47.29810 | 12.73946 | 6775 ft | 178 kts | 251° |
| 2026-04-22 17:57 | 47.29405 | 12.72184 | 6894 ft | 187 kts | 254° |
| 2026-04-22 17:58 | 47.29010 | 12.70294 | 6970 ft | 199 kts | 255° |
| 2026-04-22 17:58 | 47.28597 | 12.68282 | 6993 ft | 215 kts | 256° |
| 2026-04-22 17:58 | 47.28169 | 12.66162 | 6990 ft | 208 kts | 255° |
| 2026-04-22 17:58 | 47.27903 | 12.64151 | 6994 ft | 195 kts | 266° |
| 2026-04-22 17:59 | 47.27817 | 12.62182 | 6995 ft | 190 kts | 270° |
| 2026-04-22 17:59 | 47.27760 | 12.60250 | 7002 ft | 189 kts | 270° |
| 2026-04-22 17:59 | 47.27714 | 12.58322 | 7006 ft | 188 kts | 270° |
| 2026-04-22 17:59 | 47.27684 | 12.56406 | 7011 ft | 187 kts | 270° |
| 2026-04-22 18:00 | 47.27668 | 12.55140 | 7017 ft | 186 kts | 270° |
| 2026-04-22 18:00 | 47.27639 | 12.52579 | 7029 ft | 187 kts | 271° |
| 2026-04-22 18:00 | 47.27619 | 12.50637 | 7037 ft | 196 kts | 272° |
| 2026-04-22 18:00 | 47.27859 | 12.48614 | 7047 ft | 208 kts | 290° |
| 2026-04-22 18:01 | 47.28428 | 12.46616 | 7035 ft | 213 kts | 297° |
| 2026-04-22 18:01 | 47.29096 | 12.44653 | 7020 ft | 215 kts | 298° |
| 2026-04-22 18:01 | 47.29576 | 12.42588 | 7015 ft | 216 kts | 274° |
| 2026-04-22 18:01 | 47.29272 | 12.40420 | 7013 ft | 219 kts | 251° |
| 2026-04-22 18:02 | 47.28677 | 12.38354 | 7022 ft | 219 kts | 247° |
| 2026-04-22 18:02 | 47.28024 | 12.36318 | 7023 ft | 219 kts | 245° |
| 2026-04-22 18:02 | 47.27365 | 12.34298 | 7018 ft | 218 kts | 246° |
| 2026-04-22 18:02 | 47.26694 | 12.32293 | 7014 ft | 218 kts | 245° |
| 2026-04-22 18:03 | 47.26028 | 12.30302 | 7007 ft | 217 kts | 245° |
| 2026-04-22 18:03 | 47.25374 | 12.28305 | 7023 ft | 216 kts | 248° |
| 2026-04-22 18:03 | 47.24841 | 12.26237 | 7034 ft | 216 kts | 252° |
| 2026-04-22 18:03 | 47.24378 | 12.24129 | 7032 ft | 216 kts | 258° |
| 2026-04-22 18:04 | 47.24151 | 12.21953 | 7039 ft | 216 kts | 266° |
| 2026-04-22 18:04 | 47.24002 | 12.19744 | 7030 ft | 217 kts | 266° |
| 2026-04-22 18:04 | 47.23882 | 12.17539 | 7025 ft | 216 kts | 267° |
| 2026-04-22 18:04 | 47.23768 | 12.15333 | 7020 ft | 217 kts | 268° |
| 2026-04-22 18:05 | 47.23646 | 12.13111 | 7025 ft | 218 kts | 268° |
| 2026-04-22 18:05 | 47.23532 | 12.10911 | 7011 ft | 218 kts | 268° |
| 2026-04-22 18:05 | 47.23423 | 12.08691 | 7016 ft | 218 kts | 267° |
| 2026-04-22 18:05 | 47.23257 | 12.06476 | 7025 ft | 218 kts | 259° |
| 2026-04-22 18:06 | 47.22856 | 12.04312 | 7004 ft | 220 kts | 255° |
| 2026-04-22 18:06 | 47.22368 | 12.02190 | 7000 ft | 219 kts | 250° |
| 2026-04-22 18:06 | 47.21771 | 12.00141 | 7003 ft | 218 kts | 247° |
| 2026-04-22 18:06 | 47.21249 | 11.98068 | 6994 ft | 215 kts | 261° |
| 2026-04-22 18:07 | 47.21063 | 11.95905 | 6985 ft | 212 kts | 269° |
| 2026-04-22 18:07 | 47.21093 | 11.93740 | 7014 ft | 212 kts | 276° |
| 2026-04-22 18:07 | 47.21240 | 11.91568 | 7024 ft | 214 kts | 280° |
| 2026-04-22 18:07 | 47.21853 | 11.89632 | 7024 ft | 210 kts | 316° |
| 2026-04-22 18:08 | 47.23099 | 11.88608 | 7016 ft | 206 kts | 344° |
| 2026-04-22 18:08 | 47.24498 | 11.88150 | 6997 ft | 205 kts | 352° |
| 2026-04-22 18:08 | 47.25910 | 11.87868 | 7006 ft | 205 kts | 354° |
| 2026-04-22 18:08 | 47.27335 | 11.87638 | 7024 ft | 206 kts | 355° |
| 2026-04-22 18:09 | 47.28760 | 11.87432 | 7027 ft | 206 kts | 355° |
| 2026-04-22 18:09 | 47.30184 | 11.87230 | 7011 ft | 205 kts | 355° |
| 2026-04-22 18:09 | 47.31603 | 11.87038 | 7011 ft | 205 kts | 356° |
| 2026-04-22 18:09 | 47.33024 | 11.86833 | 7011 ft | 206 kts | 351° |
| 2026-04-22 18:10 | 47.34392 | 11.86210 | 7022 ft | 206 kts | 340° |
| 2026-04-22 18:10 | 47.35713 | 11.85365 | 7018 ft | 207 kts | 337° |
| 2026-04-22 18:10 | 47.37019 | 11.84469 | 7015 ft | 207 kts | 336° |
| 2026-04-22 18:10 | 47.38290 | 11.83476 | 7020 ft | 208 kts | 323° |
| 2026-04-22 18:11 | 47.39077 | 11.81691 | 7018 ft | 214 kts | 286° |
| 2026-04-22 18:11 | 47.38991 | 11.79502 | 7019 ft | 220 kts | 251° |
| 2026-04-22 18:11 | 47.38157 | 11.77625 | 7006 ft | 221 kts | 227° |
| 2026-04-22 18:11 | 47.37002 | 11.76124 | 7004 ft | 221 kts | 219° |
| 2026-04-22 18:12 | 47.35795 | 11.74725 | 6997 ft | 221 kts | 218° |
| 2026-04-22 18:12 | 47.34571 | 11.73351 | 6996 ft | 221 kts | 219° |
| 2026-04-22 18:12 | 47.33822 | 11.72339 | 6999 ft | 220 kts | 225° |
| 2026-04-22 18:12 | 47.32397 | 11.70189 | 6997 ft | 219 kts | 228° |
| 2026-04-22 18:13 | 47.31435 | 11.68443 | 6994 ft | 220 kts | 234° |
| 2026-04-22 18:13 | 47.30538 | 11.66612 | 6989 ft | 220 kts | 235° |
| 2026-04-22 18:13 | 47.29670 | 11.64745 | 6984 ft | 222 kts | 236° |
| 2026-04-22 18:13 | 47.28808 | 11.62852 | 6986 ft | 223 kts | 236° |
| 2026-04-22 18:14 | 47.28022 | 11.60890 | 6981 ft | 222 kts | 251° |
| 2026-04-22 18:14 | 47.27650 | 11.58708 | 6976 ft | 220 kts | 259° |
| 2026-04-22 18:14 | 47.27304 | 11.56509 | 6975 ft | 220 kts | 257° |
| 2026-04-22 18:14 | 47.26925 | 11.54326 | 6975 ft | 220 kts | 256° |
| 2026-04-22 18:15 | 47.26533 | 11.52148 | 6976 ft | 220 kts | 256° |
| 2026-04-22 18:15 | 47.26135 | 11.49969 | 6974 ft | 221 kts | 256° |
| 2026-04-22 18:15 | 47.25734 | 11.47790 | 6972 ft | 220 kts | 256° |
| 2026-04-22 18:15 | 47.25338 | 11.45613 | 6972 ft | 220 kts | 256° |
| 2026-04-22 18:16 | 47.24942 | 11.43430 | 6973 ft | 221 kts | 256° |
| 2026-04-22 18:16 | 47.24534 | 11.41240 | 6980 ft | 222 kts | 255° |
| 2026-04-22 18:16 | 47.24028 | 11.39107 | 6974 ft | 221 kts | 238° |
| 2026-04-22 18:16 | 47.22943 | 11.37706 | 6977 ft | 184 kts | 200° |
| 2026-04-22 18:17 | 47.21759 | 11.37724 | 6973 ft | 173 kts | 154° |
| 2026-04-22 18:17 | 47.20928 | 11.38929 | 6988 ft | 170 kts | 108° |
| 2026-04-22 18:17 | 47.20775 | 11.40610 | 6984 ft | 166 kts | 77° |
| 2026-04-22 18:17 | 47.21009 | 11.42266 | 6974 ft | 165 kts | 73° |
| 2026-04-22 18:18 | 47.21291 | 11.43894 | 6978 ft | 161 kts | 71° |
| 2026-04-22 18:18 | 47.21576 | 11.45424 | 6996 ft | 152 kts | 71° |
| 2026-04-22 18:18 | 47.21956 | 11.46853 | 7006 ft | 147 kts | 47° |
| 2026-04-22 18:18 | 47.22832 | 11.47423 | 6986 ft | 141 kts | 355° |
| 2026-04-22 18:19 | 47.23620 | 11.46641 | 6955 ft | 145 kts | 300° |
| 2026-04-22 18:19 | 47.23922 | 11.45224 | 6952 ft | 146 kts | 287° |
| 2026-04-22 18:19 | 47.24142 | 11.43772 | 6959 ft | 146 kts | 285° |
| 2026-04-22 18:19 | 47.24295 | 11.42295 | 6968 ft | 148 kts | 273° |
| 2026-04-22 18:20 | 47.24252 | 11.40575 | 6991 ft | 188 kts | 269° |
| 2026-04-22 18:20 | 47.24150 | 11.38491 | 7002 ft | 219 kts | 267° |
| 2026-04-22 18:20 | 47.24018 | 11.36163 | 6989 ft | 235 kts | 266° |
| 2026-04-22 18:20 | 47.23868 | 11.33788 | 6986 ft | 228 kts | 266° |
| 2026-04-22 18:21 | 47.23726 | 11.31571 | 6963 ft | 214 kts | 274° |
| 2026-04-22 18:21 | 47.24114 | 11.29476 | 6967 ft | 215 kts | 292° |
| 2026-04-22 18:21 | 47.24439 | 11.27303 | 6962 ft | 216 kts | 286° |
| 2026-04-22 18:21 | 47.24860 | 11.25186 | 6967 ft | 215 kts | 290° |
| 2026-04-22 18:22 | 47.25348 | 11.23100 | 6983 ft | 217 kts | 291° |
| 2026-04-22 18:22 | 47.25864 | 11.21008 | 6983 ft | 219 kts | 291° |
| 2026-04-22 18:22 | 47.26387 | 11.18924 | 6996 ft | 221 kts | 292° |
| 2026-04-22 18:22 | 47.26924 | 11.16762 | 6995 ft | 223 kts | 292° |
| 2026-04-22 18:23 | 47.27458 | 11.14621 | 6997 ft | 223 kts | 291° |
| 2026-04-22 18:23 | 47.28006 | 11.12492 | 6999 ft | 222 kts | 294° |
| 2026-04-22 18:23 | 47.28630 | 11.10410 | 6994 ft | 221 kts | 295° |
| 2026-04-22 18:24 | 47.28860 | 11.05912 | 6997 ft | 223 kts | 268° |
| 2026-04-22 18:24 | 47.28739 | 11.03627 | 6994 ft | 225 kts | 265° |
| 2026-04-22 18:24 | 47.28426 | 10.99060 | 6997 ft | 226 kts | 265° |
| 2026-04-22 18:25 | 47.28522 | 10.96789 | 6997 ft | 223 kts | 291° |
| 2026-04-22 18:25 | 47.29106 | 10.94643 | 7007 ft | 224 kts | 295° |
| 2026-04-22 18:25 | 47.29694 | 10.92547 | 6996 ft | 224 kts | 295° |
| 2026-04-22 18:26 | 47.30711 | 10.88210 | 7007 ft | 226 kts | 272° |
| 2026-04-22 18:26 | 47.30303 | 10.86075 | 7362 ft | 213 kts | 238° |
| 2026-04-22 18:26 | 47.29479 | 10.84325 | 7853 ft | 204 kts | 233° |
| 2026-04-22 18:26 | 47.28619 | 10.82687 | 8355 ft | 200 kts | 232° |
| 2026-04-22 18:27 | 47.28045 | 10.80842 | 8709 ft | 204 kts | 265° |
| 2026-04-22 18:27 | 47.28255 | 10.78747 | 8869 ft | 213 kts | 287° |
| 2026-04-22 18:27 | 47.28687 | 10.76715 | 9389 ft | 202 kts | 290° |
| 2026-04-22 18:27 | 47.29129 | 10.74794 | 9953 ft | 197 kts | 290° |
| 2026-04-22 18:28 | 47.29588 | 10.72851 | 10250 ft | 206 kts | 291° |
| 2026-04-22 18:28 | 47.30087 | 10.70804 | 10379 ft | 219 kts | 291° |
| 2026-04-22 18:28 | 47.30614 | 10.68628 | 10532 ft | 226 kts | 291° |
| 2026-04-22 18:28 | 47.31124 | 10.66487 | 11076 ft | 218 kts | 291° |
| 2026-04-22 18:29 | 47.31608 | 10.64404 | 11604 ft | 213 kts | 291° |
| 2026-04-22 18:29 | 47.32075 | 10.62344 | 12066 ft | 213 kts | 291° |
| 2026-04-22 18:29 | 47.32536 | 10.60196 | 12313 ft | 223 kts | 285° |
| 2026-04-22 18:29 | 47.32434 | 10.57904 | 12403 ft | 237 kts | 252° |
| 2026-04-22 18:30 | 47.31790 | 10.55629 | 12439 ft | 244 kts | 246° |
| 2026-04-22 18:30 | 47.30267 | 10.51079 | 12487 ft | 248 kts | 244° |
| 2026-04-22 18:30 | 47.29487 | 10.48842 | 12494 ft | 244 kts | 244° |
| 2026-04-22 18:31 | 47.28709 | 10.46632 | 12488 ft | 242 kts | 243° |
| 2026-04-22 18:31 | 47.27933 | 10.44432 | 12492 ft | 242 kts | 243° |
| 2026-04-22 18:31 | 47.27156 | 10.42244 | 12486 ft | 241 kts | 243° |
| 2026-04-22 18:31 | 47.26378 | 10.40059 | 12485 ft | 241 kts | 243° |
| 2026-04-22 18:32 | 47.25853 | 10.38584 | 12489 ft | 241 kts | 243° |
| 2026-04-22 18:32 | 47.24831 | 10.35693 | 12488 ft | 240 kts | 243° |
| 2026-04-22 18:32 | 47.24062 | 10.33507 | 12477 ft | 241 kts | 244° |
| 2026-04-22 18:32 | 47.23290 | 10.31317 | 12479 ft | 241 kts | 243° |
| 2026-04-22 18:33 | 47.22516 | 10.29134 | 12467 ft | 240 kts | 243° |
| 2026-04-22 18:33 | 47.21512 | 10.27201 | 12474 ft | 240 kts | 217° |
| 2026-04-22 18:33 | 47.19984 | 10.26305 | 12476 ft | 238 kts | 183° |
| 2026-04-22 18:33 | 47.18340 | 10.26409 | 12481 ft | 236 kts | 171° |
| 2026-04-22 18:34 | 47.16718 | 10.26770 | 12473 ft | 237 kts | 176° |
| 2026-04-22 18:34 | 47.15134 | 10.26161 | 12467 ft | 240 kts | 211° |
| 2026-04-22 18:34 | 47.14312 | 10.25090 | 12497 ft | 238 kts | 234° |
| 2026-04-22 18:34 | 47.13742 | 10.22908 | 12826 ft | 229 kts | 268° |
| 2026-04-22 18:35 | 47.13936 | 10.20581 | 13187 ft | 228 kts | 285° |
| 2026-04-22 18:35 | 47.14309 | 10.18306 | 13524 ft | 230 kts | 288° |
| 2026-04-22 18:35 | 47.14716 | 10.16040 | 13850 ft | 229 kts | 288° |
| 2026-04-22 18:35 | 47.15130 | 10.13806 | 14192 ft | 230 kts | 289° |
| 2026-04-22 18:36 | 47.15559 | 10.11530 | 14522 ft | 232 kts | 289° |
| 2026-04-22 18:36 | 47.16017 | 10.09248 | 14767 ft | 234 kts | 296° |
| 2026-04-22 18:36 | 47.17023 | 10.07427 | 14865 ft | 232 kts | 330° |
| 2026-04-22 18:36 | 47.18532 | 10.06753 | 14911 ft | 229 kts | 3° |
| 2026-04-22 18:37 | 47.20027 | 10.07462 | 14961 ft | 232 kts | 35° |
| 2026-04-22 18:37 | 47.21012 | 10.09317 | 14969 ft | 231 kts | 68° |
| 2026-04-22 18:37 | 47.21269 | 10.11639 | 14970 ft | 232 kts | 83° |
| 2026-04-22 18:37 | 47.21330 | 10.14031 | 14974 ft | 236 kts | 86° |
| 2026-04-22 18:38 | 47.21344 | 10.16440 | 14978 ft | 235 kts | 87° |
| 2026-04-22 18:38 | 47.21338 | 10.18835 | 14975 ft | 233 kts | 87° |
| 2026-04-22 18:38 | 47.21323 | 10.21216 | 14984 ft | 232 kts | 87° |
| 2026-04-22 18:39 | 47.21441 | 10.25910 | 14981 ft | 227 kts | 71° |
| 2026-04-22 18:39 | 47.21982 | 10.28083 | 14986 ft | 226 kts | 65° |
| 2026-04-22 18:39 | 47.22836 | 10.30011 | 14988 ft | 223 kts | 39° |
| 2026-04-22 18:39 | 47.24147 | 10.31162 | 14987 ft | 223 kts | 27° |
| 2026-04-22 18:40 | 47.25551 | 10.32138 | 14998 ft | 223 kts | 25° |
| 2026-04-22 18:40 | 47.26968 | 10.33065 | 14991 ft | 223 kts | 24° |
| 2026-04-22 18:40 | 47.28394 | 10.33968 | 15001 ft | 223 kts | 24° |
| 2026-04-22 18:40 | 47.29817 | 10.34863 | 14966 ft | 222 kts | 23° |
| 2026-04-22 18:41 | 47.31245 | 10.35752 | 14999 ft | 224 kts | 23° |
| 2026-04-22 18:41 | 47.32690 | 10.36645 | 15018 ft | 227 kts | 23° |
| 2026-04-22 18:41 | 47.34153 | 10.37547 | 15017 ft | 228 kts | 23° |
| 2026-04-22 18:41 | 47.35620 | 10.38444 | 15014 ft | 228 kts | 23° |
| 2026-04-22 18:42 | 47.37084 | 10.39339 | 15004 ft | 227 kts | 23° |